Kouyou — JD3890 — position and weather

sailwx.info

Track history (hours):
 
Tides and Currents Weather Stations Pressure Air Temp Water Temp Dewpoint Dewpoint Depression Visibility Wind Speed Wind Dir Waves Ship Positions

Kouyou

Last reported at 2018-Feb-23 00:14 UTC. Time now 2018-Feb-23 16:04 UTC.
Position N 34°58' E 140°06'.

Length 83 m; draft 4.6 m.

Type: Ship. MMSI: 431006632.

Date/timePositionNaut miles runAvg speedWind from/ knotsBaromVisibWave heightAir tempDewpointWater temp
2018-Feb-23 00:14N 34°58' E 140°06'311.1
2018-Feb-22 23:56N 34°56' E 140°03'4710.9
2018-Feb-22 19:37N 34°36' E 139°11'111.2
2018-Feb-22 19:30N 34°35' E 139°10'611.2
2018-Feb-22 19:00N 34°34' E 139°03'911.6
2018-Feb-22 18:11N 34°33' E 138°52'811.7
2018-Feb-22 17:33N 34°33' E 138°42'212.6
2018-Feb-22 17:25N 34°33' E 138°41'512.6
2018-Feb-22 16:59N 34°33' E 138°34'712.6
2018-Feb-22 16:28N 34°32' E 138°26'612.8
2018-Feb-22 16:00N 34°33' E 138°19'7412.5
2018-Feb-22 10:05N 34°41' E 136°50'212.9
2018-Feb-22 09:57N 34°42' E 136°49'612.6
2018-Feb-22 09:30N 34°47' E 136°46'612.4
2018-Feb-22 09:00N 34°54' E 136°46'611.9
2018-Feb-22 08:30N 34°59' E 136°49'4 8.4
2018-Feb-22 08:00N 35°03' E 136°50'0 0.0
2018-Feb-22 07:29N 35°03' E 136°50'0 0.0
2018-Feb-22 06:59N 35°03' E 136°50'0 0.0
2018-Feb-22 06:29N 35°03' E 136°50'0 0.0
2018-Feb-22 05:59N 35°03' E 136°50'0 0.0
2018-Feb-22 05:29N 35°03' E 136°50'0 0.0
2018-Feb-22 04:59N 35°03' E 136°50'0 0.0
2018-Feb-22 04:29N 35°03' E 136°50'0 0.0
2018-Feb-22 03:59N 35°03' E 136°50'0 0.0
2018-Feb-22 03:29N 35°03' E 136°50'0 0.0
2018-Feb-22 02:59N 35°03' E 136°50'0 0.0
2018-Feb-22 02:29N 35°03' E 136°50'0 0.0
2018-Feb-22 01:59N 35°03' E 136°50'0 0.0
2018-Feb-22 01:29N 35°03' E 136°50'0 0.0
2018-Feb-22 00:59N 35°03' E 136°50'0 0.0
2018-Feb-22 00:29N 35°03' E 136°50'0 0.0
2018-Feb-21 23:59N 35°03' E 136°50'0 0.0
2018-Feb-21 23:29N 35°03' E 136°50'0 0.4
2018-Feb-21 23:00N 35°03' E 136°50'3 5.2
2018-Feb-21 22:30N 35°01' E 136°50'4 8.3
2018-Feb-21 22:01N 34°57' E 136°47'0 0.1
2018-Feb-21 21:26N 34°57' E 136°47'0 0.0
2018-Feb-21 20:59N 34°57' E 136°47'0 0.0
2018-Feb-21 20:29N 34°57' E 136°47'0 0.0
2018-Feb-21 19:59N 34°57' E 136°47'0 0.0
2018-Feb-21 19:29N 34°57' E 136°47'0 0.0
2018-Feb-21 18:59N 34°57' E 136°47'0 0.1
2018-Feb-21 18:29N 34°57' E 136°47'0 0.1
2018-Feb-21 17:59N 34°57' E 136°47'0 0.0
2018-Feb-21 17:29N 34°57' E 136°47'0 0.0
2018-Feb-21 16:59N 34°57' E 136°47'0 0.0
2018-Feb-21 16:29N 34°57' E 136°47'0 0.0
2018-Feb-21 15:59N 34°57' E 136°47'0 0.0
2018-Feb-21 15:29N 34°57' E 136°47'0 0.0
2018-Feb-21 14:59N 34°57' E 136°47'0 0.0
2018-Feb-21 14:29N 34°57' E 136°47'0 0.0
2018-Feb-21 13:59N 34°57' E 136°47'0 0.0
2018-Feb-21 13:29N 34°57' E 136°47'0 0.0
2018-Feb-21 12:59N 34°57' E 136°47'0 0.0
2018-Feb-21 12:26N 34°57' E 136°47'0 0.0
2018-Feb-21 11:59N 34°57' E 136°47'0 0.0
2018-Feb-21 11:29N 34°57' E 136°47'0 0.0
2018-Feb-21 10:59N 34°57' E 136°47'2 3.6
2018-Feb-21 10:30N 34°56' E 136°46'611.0
2018-Feb-21 10:00N 34°50' E 136°47'610.9
2018-Feb-21 09:29N 34°45' E 136°49'103 7.7
2018-Feb-20 20:04N 33°51' E 135°03'112.4
2018-Feb-20 19:58N 33°52' E 135°02'612.2
2018-Feb-20 19:30N 33°57' E 134°57'1012.1
2018-Feb-20 18:42N 34°04' E 134°50'312.3
2018-Feb-20 18:28N 34°06' E 134°47'812.8
2018-Feb-20 17:51N 34°12' E 134°41'513.2
2018-Feb-20 17:30N 34°16' E 134°37'611.9
2018-Feb-20 17:00N 34°18' E 134°31'611.9
2018-Feb-20 16:30N 34°20' E 134°24'84 9.5
2018-Feb-20 07:42N 34°01' E 132°46'2 9.9
2018-Feb-20 07:30N 33°59' E 132°44'510.2
2018-Feb-20 06:59N 33°55' E 132°40'510.8
2018-Feb-20 06:29N 33°53' E 132°34'2711.4
2018-Feb-20 04:07N 33°45' E 132°03'512.4
2018-Feb-20 03:42N 33°46' E 131°57'212.0
2018-Feb-20 03:30N 33°46' E 131°54'612.2
2018-Feb-20 03:00N 33°47' E 131°47'612.0
2018-Feb-20 02:30N 33°48' E 131°40'611.7
2018-Feb-20 02:00N 33°49' E 131°32'611.5
2018-Feb-20 01:30N 33°50' E 131°26'611.2
2018-Feb-20 01:00N 33°51' E 131°19'510.9
2018-Feb-20 00:30N 33°53' E 131°13'611.0
2018-Feb-20 00:00N 33°56' E 131°07'611.2
2018-Feb-19 23:30N 33°58' E 131°01'510.6
2018-Feb-19 23:00N 33°55' E 130°56'3 6.1
2018-Feb-19 22:30N 33°54' E 130°53'0 0.0
2018-Feb-19 22:00N 33°54' E 130°53'0 0.0
2018-Feb-19 21:24N 33°54' E 130°53'0 0.0
2018-Feb-19 21:00N 33°54' E 130°53'0 0.0
2018-Feb-19 20:30N 33°54' E 130°53'0 0.0
2018-Feb-19 20:00N 33°54' E 130°53'0 0.0
2018-Feb-19 19:30N 33°54' E 130°53'0 0.0
2018-Feb-19 19:00N 33°54' E 130°53'0 0.0
2018-Feb-19 18:30N 33°54' E 130°53'0 0.0
2018-Feb-19 18:00N 33°54' E 130°53'0 0.0
2018-Feb-19 17:30N 33°54' E 130°53'0 0.0
2018-Feb-19 17:00N 33°54' E 130°53'0 0.0
2018-Feb-19 16:30N 33°54' E 130°53'0 0.0
2018-Feb-19 16:00N 33°54' E 130°53'0 0.0
2018-Feb-19 15:30N 33°54' E 130°53'0 0.0
2018-Feb-19 15:00N 33°54' E 130°53'0 0.0
2018-Feb-19 14:30N 33°54' E 130°53'0 0.0
2018-Feb-19 14:00N 33°54' E 130°53'0 0.0
2018-Feb-19 13:30N 33°54' E 130°53'0 0.0
2018-Feb-19 13:00N 33°54' E 130°53'0 0.0
2018-Feb-19 12:30N 33°54' E 130°53'0 0.0
2018-Feb-19 12:00N 33°54' E 130°53'0 0.0
2018-Feb-19 11:30N 33°54' E 130°53'0 0.0
2018-Feb-19 11:00N 33°54' E 130°53'0 0.0
2018-Feb-19 10:30N 33°54' E 130°53'0 0.0
2018-Feb-19 10:00N 33°54' E 130°53'0 0.0
2018-Feb-19 09:30N 33°54' E 130°53'0 0.0
2018-Feb-19 09:00N 33°54' E 130°53'0 0.0
2018-Feb-19 08:24N 33°54' E 130°53'0 0.0
2018-Feb-19 08:00N 33°54' E 130°53'0 0.0
2018-Feb-19 07:30N 33°54' E 130°53'0 0.0
2018-Feb-19 07:00N 33°54' E 130°53'0 0.0
2018-Feb-19 06:30N 33°54' E 130°53'0 0.0
2018-Feb-19 06:00N 33°54' E 130°53'0 0.0
2018-Feb-19 05:30N 33°54' E 130°53'0 0.0
2018-Feb-19 05:00N 33°54' E 130°53'0 0.0
2018-Feb-19 04:30N 33°54' E 130°53'0 0.0
2018-Feb-19 03:57N 33°54' E 130°53'0 0.0
2018-Feb-19 03:30N 33°54' E 130°53'0 0.0
2018-Feb-19 03:00N 33°54' E 130°53'0 0.0
2018-Feb-19 02:30N 33°54' E 130°53'0 0.0
2018-Feb-19 02:00N 33°54' E 130°53'0 0.0
2018-Feb-19 01:30N 33°54' E 130°53'0 0.0
2018-Feb-19 01:00N 33°54' E 130°53'0 0.0
2018-Feb-19 00:30N 33°54' E 130°53'0 0.0
2018-Feb-19 00:00N 33°54' E 130°53'0 0.0
2018-Feb-18 23:30N 33°54' E 130°53'0 0.0
2018-Feb-18 23:00N 33°54' E 130°53'0 0.0
2018-Feb-18 22:30N 33°54' E 130°53'0 0.0
2018-Feb-18 22:00N 33°54' E 130°53'0 0.0
2018-Feb-18 21:30N 33°54' E 130°53'0 0.0
2018-Feb-18 21:00N 33°54' E 130°53'0 0.0
2018-Feb-18 20:30N 33°54' E 130°53'0 0.0
2018-Feb-18 20:00N 33°54' E 130°53'0 0.0
2018-Feb-18 19:30N 33°54' E 130°53'0 0.0
2018-Feb-18 19:00N 33°54' E 130°53'0 0.0
2018-Feb-18 18:30N 33°54' E 130°53'0 0.0
2018-Feb-18 18:00N 33°54' E 130°53'0 0.0
2018-Feb-18 17:30N 33°54' E 130°53'0 0.0
2018-Feb-18 17:00N 33°54' E 130°53'0 0.0
2018-Feb-18 16:30N 33°54' E 130°53'0 0.0
2018-Feb-18 16:00N 33°54' E 130°53'0 0.0
2018-Feb-18 15:30N 33°54' E 130°53'0 0.0
2018-Feb-18 15:00N 33°54' E 130°53'0 0.0
2018-Feb-18 14:30N 33°54' E 130°53'0 0.0
2018-Feb-18 14:00N 33°54' E 130°53'0 0.0
2018-Feb-18 13:30N 33°54' E 130°53'0 0.0
2018-Feb-18 13:00N 33°54' E 130°53'0 0.0
2018-Feb-18 12:30N 33°54' E 130°53'0 0.0
2018-Feb-18 12:00N 33°54' E 130°53'0 0.0
2018-Feb-18 11:30N 33°54' E 130°53'0 0.0
2018-Feb-18 11:00N 33°54' E 130°53'0 0.0
2018-Feb-18 10:30N 33°54' E 130°53'0 0.0
2018-Feb-18 10:00N 33°54' E 130°53'0 0.0
2018-Feb-18 09:30N 33°54' E 130°53'0 0.0
2018-Feb-18 09:00N 33°54' E 130°53'0 0.0
2018-Feb-18 08:30N 33°54' E 130°53'0 0.0
2018-Feb-18 08:00N 33°54' E 130°53'0 0.0
2018-Feb-18 07:30N 33°54' E 130°53'0 0.0
2018-Feb-18 07:00N 33°54' E 130°53'0 0.0
2018-Feb-18 06:30N 33°54' E 130°53'0 0.0
2018-Feb-18 06:00N 33°54' E 130°53'0 0.0
2018-Feb-18 05:30N 33°54' E 130°53'0 0.0
2018-Feb-18 05:00N 33°54' E 130°53'0 0.0
2018-Feb-18 04:30N 33°54' E 130°53'0 0.0
2018-Feb-18 04:00N 33°54' E 130°53'0 0.0
2018-Feb-18 03:30N 33°54' E 130°53'0 0.0
2018-Feb-18 03:00N 33°54' E 130°53'0 0.0
2018-Feb-18 02:30N 33°54' E 130°53'0 0.0
2018-Feb-18 02:00N 33°54' E 130°53'0 0.0
2018-Feb-18 01:30N 33°54' E 130°53'0 0.0
2018-Feb-18 01:00N 33°54' E 130°53'0 0.0
2018-Feb-18 00:30N 33°54' E 130°53'0 0.0
2018-Feb-18 00:00N 33°54' E 130°53'0 0.0
2018-Feb-17 23:30N 33°54' E 130°53'0 0.0
2018-Feb-17 23:00N 33°54' E 130°53'2 4.0
2018-Feb-17 22:31N 33°54' E 130°55'5 9.6
2018-Feb-17 22:00N 33°58' E 130°59'4 8.5
2018-Feb-17 21:31N 33°57' E 131°04'713.2
2018-Feb-17 21:01N 33°54' E 131°10'713.4
2018-Feb-17 20:30N 33°51' E 131°18'713.2
2018-Feb-17 20:00N 33°50' E 131°25'613.0
2018-Feb-17 19:31N 33°48' E 131°33'612.8
2018-Feb-17 19:00N 33°47' E 131°41'612.7
2018-Feb-17 18:30N 33°46' E 131°48'712.8
2018-Feb-17 17:58N 33°45' E 131°56'613.1
2018-Feb-17 17:30N 33°46' E 132°04'913.7
2018-Feb-17 16:51N 33°50' E 132°13'513.6
2018-Feb-17 16:30N 33°50' E 132°19'713.3
2018-Feb-17 15:57N 33°53' E 132°27'613.8
2018-Feb-17 15:30N 33°57' E 132°33'613.0
2018-Feb-17 15:01N 34°02' E 132°38'10011.5
2018-Feb-17 06:20N 34°42' E 134°29'310.1
2018-Feb-17 06:00N 34°44' E 134°33'5 9.4
2018-Feb-17 05:28N 34°47' E 134°38'0 0.0
2018-Feb-16 17:57N 34°47' E 134°38'2 4.4
2018-Feb-16 17:30N 34°45' E 134°37'0 0.1
2018-Feb-16 16:59N 34°45' E 134°37'0 0.0
2018-Feb-16 15:59N 34°45' E 134°37'0 0.0
2018-Feb-16 15:11N 34°45' E 134°37'0 0.2
2018-Feb-16 14:59N 34°45' E 134°37'0 0.0
2018-Feb-16 14:29N 34°45' E 134°37'0 0.2
2018-Feb-16 13:58N 34°45' E 134°37'611.1
2018-Feb-16 13:28N 34°43' E 134°31'2411.2
2018-Feb-16 11:21N 34°32' E 134°05'72 9.5
2018-Feb-16 03:46N 34°01' E 132°46'311.3
2018-Feb-16 03:28N 33°58' E 132°44'611.8
2018-Feb-16 02:59N 33°55' E 132°38'611.7
2018-Feb-16 02:30N 33°51' E 132°34'611.6
2018-Feb-16 01:59N 33°47' E 132°28'712.0
2018-Feb-16 01:27N 33°43' E 132°22'612.0
2018-Feb-16 00:56N 33°39' E 132°16'1712.0
2018-Feb-15 23:33N 33°29' E 131°60'212.7
2018-Feb-15 23:22N 33°28' E 131°58'512.5
2018-Feb-15 23:00N 33°25' E 131°53'812.0
2018-Feb-15 22:21N 33°21' E 131°46'411.9
2018-Feb-15 22:00N 33°18' E 131°42'3 0.3
2018-Feb-15 12:51N 33°16' E 131°40'4 9.9
2018-Feb-15 12:29N 33°19' E 131°42'612.9
2018-Feb-15 12:00N 33°25' E 131°45'612.0
2018-Feb-15 11:30N 33°31' E 131°47'611.6
2018-Feb-15 11:00N 33°36' E 131°45'612.3
2018-Feb-15 10:30N 33°41' E 131°40'611.6
2018-Feb-15 10:00N 33°43' E 131°34'612.1
2018-Feb-15 09:30N 33°46' E 131°27'612.4
2018-Feb-15 09:00N 33°48' E 131°20'612.3
2018-Feb-15 08:30N 33°50' E 131°14'612.1
2018-Feb-15 08:00N 33°54' E 131°07'611.3
2018-Feb-15 07:30N 33°57' E 131°02'5 9.9
2018-Feb-15 07:01N 33°56' E 130°56'4 8.0
2018-Feb-15 06:30N 33°56' E 130°52'5 9.1
2018-Feb-15 06:00N 33°53' E 130°47'0 0.2
2018-Feb-15 05:29N 33°53' E 130°47'0 0.0
2018-Feb-15 04:59N 33°53' E 130°47'0 0.0
2018-Feb-15 04:29N 33°53' E 130°47'0 0.0
2018-Feb-15 03:59N 33°53' E 130°47'0 0.0
2018-Feb-15 03:29N 33°53' E 130°47'0 0.0
2018-Feb-15 02:59N 33°53' E 130°47'0 0.0
2018-Feb-15 02:29N 33°53' E 130°47'0 0.0
2018-Feb-15 01:59N 33°53' E 130°47'0 0.0
2018-Feb-15 01:29N 33°53' E 130°47'0 0.0
2018-Feb-15 00:59N 33°53' E 130°47'0 0.0
2018-Feb-15 00:29N 33°53' E 130°47'0 0.0
2018-Feb-14 23:59N 33°53' E 130°47'0 0.0
2018-Feb-14 23:29N 33°53' E 130°47'0 0.0
2018-Feb-14 22:59N 33°53' E 130°47'0 0.0
2018-Feb-14 22:29N 33°53' E 130°47'0 0.0
2018-Feb-14 21:59N 33°53' E 130°47'0 0.0
2018-Feb-14 21:29N 33°53' E 130°47'0 0.0
2018-Feb-14 20:59N 33°53' E 130°47'0 0.0
2018-Feb-14 20:29N 33°53' E 130°47'0 0.0
2018-Feb-14 19:59N 33°53' E 130°47'0 0.0
2018-Feb-14 19:23N 33°53' E 130°47'0 0.0
2018-Feb-14 18:59N 33°53' E 130°47'0 0.0
2018-Feb-14 18:29N 33°53' E 130°47'0 0.0
2018-Feb-14 17:59N 33°53' E 130°47'0 0.0
2018-Feb-14 17:29N 33°53' E 130°47'0 0.0
2018-Feb-14 16:59N 33°53' E 130°47'0 0.0
2018-Feb-14 16:29N 33°53' E 130°47'0 0.0
2018-Feb-14 15:59N 33°53' E 130°47'0 0.0
2018-Feb-14 15:29N 33°53' E 130°47'0 0.0
2018-Feb-14 14:59N 33°53' E 130°47'0 0.0
2018-Feb-14 14:29N 33°53' E 130°47'0 0.0
2018-Feb-14 13:59N 33°53' E 130°47'0 0.0
2018-Feb-14 13:29N 33°53' E 130°47'0 0.0
2018-Feb-14 12:59N 33°53' E 130°47'0 0.0
2018-Feb-14 12:29N 33°53' E 130°47'0 0.1
2018-Feb-14 12:00N 33°53' E 130°47'0 0.0
2018-Feb-14 11:30N 33°53' E 130°47'0 0.0
2018-Feb-14 11:00N 33°53' E 130°47'0 0.0
2018-Feb-14 10:30N 33°53' E 130°47'0 0.0
2018-Feb-14 09:57N 33°53' E 130°47'0 0.0
2018-Feb-14 09:30N 33°53' E 130°47'0 0.0
2018-Feb-14 09:00N 33°53' E 130°47'0 0.0
2018-Feb-14 08:30N 33°53' E 130°47'0 0.0
2018-Feb-14 08:00N 33°53' E 130°47'0 0.0
2018-Feb-14 07:30N 33°53' E 130°47'0 0.0
2018-Feb-14 07:00N 33°53' E 130°47'0 0.0
2018-Feb-14 06:27N 33°53' E 130°47'0 0.0
2018-Feb-14 06:00N 33°53' E 130°47'0 0.0
2018-Feb-14 05:30N 33°53' E 130°47'0 0.0
2018-Feb-14 05:00N 33°53' E 130°47'0 0.0
2018-Feb-14 04:30N 33°53' E 130°47'0 0.0
2018-Feb-14 03:57N 33°53' E 130°47'0 0.0
2018-Feb-14 03:30N 33°53' E 130°47'0 0.0
2018-Feb-14 03:00N 33°53' E 130°47'0 0.0
2018-Feb-14 02:31N 33°53' E 130°47'2 3.8
2018-Feb-14 02:00N 33°53' E 130°45'2 3.3
2018-Feb-14 01:30N 33°53' E 130°47'5 9.1
2018-Feb-14 01:01N 33°56' E 130°51'5 9.9
2018-Feb-14 00:30N 33°57' E 130°57'611.7
2018-Feb-14 00:00N 33°58' E 131°04'0 0.2
2018-Feb-13 23:30N 33°58' E 131°04'0 0.0
2018-Feb-13 23:00N 33°58' E 131°04'0 0.0
2018-Feb-13 22:30N 33°58' E 131°04'0 0.0
2018-Feb-13 22:00N 33°58' E 131°04'4 8.0
2018-Feb-13 21:30N 33°55' E 131°08'612.3
2018-Feb-13 21:00N 33°52' E 131°14'612.5
2018-Feb-13 20:30N 33°50' E 131°21'612.3
2018-Feb-13 20:00N 33°46' E 131°27'612.4
2018-Feb-13 19:30N 33°44' E 131°34'713.1
2018-Feb-13 19:00N 33°41' E 131°41'612.5
2018-Feb-13 18:30N 33°36' E 131°45'612.1
2018-Feb-13 18:00N 33°30' E 131°47'611.1
2018-Feb-13 17:30N 33°24' E 131°45'611.7
2018-Feb-13 17:00N 33°19' E 131°42'4 0.3
2018-Feb-13 03:08N 33°16' E 131°40'0 2.5
2018-Feb-13 03:00N 33°16' E 131°40'4 8.4
2018-Feb-13 02:30N 33°20' E 131°41'1 2.0
2018-Feb-13 01:56N 33°21' E 131°42'0 0.0
2018-Feb-13 01:20N 33°21' E 131°42'0 0.0
2018-Feb-13 00:50N 33°21' E 131°42'0 0.0
2018-Feb-13 00:26N 33°21' E 131°42'  
Track history (hours):
 
Tides and Currents Weather Stations Pressure Air Temp Water Temp Dewpoint Dewpoint Depression Visibility Wind Speed Wind Dir Waves Ship Positions

Kouyou

Last reported at 2018-Feb-23 00:14 UTC. Time now 2018-Feb-23 16:04 UTC.
Position N 34°58' E 140°06'.

Length 83 m; draft 4.6 m.

Type: Ship. MMSI: 431006632.

Date/timePositionNaut miles runAvg speedWind from/ knotsBaromVisibWave heightAir tempDewpointWater temp
2018-Feb-23 00:14N 34°58' E 140°06'311.1
2018-Feb-22 23:56N 34°56' E 140°03'4710.9
2018-Feb-22 19:37N 34°36' E 139°11'111.2
2018-Feb-22 19:30N 34°35' E 139°10'611.2
2018-Feb-22 19:00N 34°34' E 139°03'911.6
2018-Feb-22 18:11N 34°33' E 138°52'811.7
2018-Feb-22 17:33N 34°33' E 138°42'212.6
2018-Feb-22 17:25N 34°33' E 138°41'512.6
2018-Feb-22 16:59N 34°33' E 138°34'712.6
2018-Feb-22 16:28N 34°32' E 138°26'612.8
2018-Feb-22 16:00N 34°33' E 138°19'7412.5
2018-Feb-22 10:05N 34°41' E 136°50'212.9
2018-Feb-22 09:57N 34°42' E 136°49'612.6
2018-Feb-22 09:30N 34°47' E 136°46'612.4
2018-Feb-22 09:00N 34°54' E 136°46'611.9
2018-Feb-22 08:30N 34°59' E 136°49'4 8.4
2018-Feb-22 08:00N 35°03' E 136°50'0 0.0
2018-Feb-22 07:29N 35°03' E 136°50'0 0.0
2018-Feb-22 06:59N 35°03' E 136°50'0 0.0
2018-Feb-22 06:29N 35°03' E 136°50'0 0.0
2018-Feb-22 05:59N 35°03' E 136°50'0 0.0
2018-Feb-22 05:29N 35°03' E 136°50'0 0.0
2018-Feb-22 04:59N 35°03' E 136°50'0 0.0
2018-Feb-22 04:29N 35°03' E 136°50'0 0.0
2018-Feb-22 03:59N 35°03' E 136°50'0 0.0
2018-Feb-22 03:29N 35°03' E 136°50'0 0.0
2018-Feb-22 02:59N 35°03' E 136°50'0 0.0
2018-Feb-22 02:29N 35°03' E 136°50'0 0.0
2018-Feb-22 01:59N 35°03' E 136°50'0 0.0
2018-Feb-22 01:29N 35°03' E 136°50'0 0.0
2018-Feb-22 00:59N 35°03' E 136°50'0 0.0
2018-Feb-22 00:29N 35°03' E 136°50'0 0.0
2018-Feb-21 23:59N 35°03' E 136°50'0 0.0
2018-Feb-21 23:29N 35°03' E 136°50'0 0.4
2018-Feb-21 23:00N 35°03' E 136°50'3 5.2
2018-Feb-21 22:30N 35°01' E 136°50'4 8.3
2018-Feb-21 22:01N 34°57' E 136°47'0 0.1
2018-Feb-21 21:26N 34°57' E 136°47'0 0.0
2018-Feb-21 20:59N 34°57' E 136°47'0 0.0
2018-Feb-21 20:29N 34°57' E 136°47'0 0.0
2018-Feb-21 19:59N 34°57' E 136°47'0 0.0
2018-Feb-21 19:29N 34°57' E 136°47'0 0.0
2018-Feb-21 18:59N 34°57' E 136°47'0 0.1
2018-Feb-21 18:29N 34°57' E 136°47'0 0.1
2018-Feb-21 17:59N 34°57' E 136°47'0 0.0
2018-Feb-21 17:29N 34°57' E 136°47'0 0.0
2018-Feb-21 16:59N 34°57' E 136°47'0 0.0
2018-Feb-21 16:29N 34°57' E 136°47'0 0.0
2018-Feb-21 15:59N 34°57' E 136°47'0 0.0
2018-Feb-21 15:29N 34°57' E 136°47'0 0.0
2018-Feb-21 14:59N 34°57' E 136°47'0 0.0
2018-Feb-21 14:29N 34°57' E 136°47'0 0.0
2018-Feb-21 13:59N 34°57' E 136°47'0 0.0
2018-Feb-21 13:29N 34°57' E 136°47'0 0.0
2018-Feb-21 12:59N 34°57' E 136°47'0 0.0
2018-Feb-21 12:26N 34°57' E 136°47'0 0.0
2018-Feb-21 11:59N 34°57' E 136°47'0 0.0
2018-Feb-21 11:29N 34°57' E 136°47'0 0.0
2018-Feb-21 10:59N 34°57' E 136°47'2 3.6
2018-Feb-21 10:30N 34°56' E 136°46'611.0
2018-Feb-21 10:00N 34°50' E 136°47'610.9
2018-Feb-21 09:29N 34°45' E 136°49'103 7.7
2018-Feb-20 20:04N 33°51' E 135°03'112.4
2018-Feb-20 19:58N 33°52' E 135°02'612.2
2018-Feb-20 19:30N 33°57' E 134°57'1012.1
2018-Feb-20 18:42N 34°04' E 134°50'312.3
2018-Feb-20 18:28N 34°06' E 134°47'812.8
2018-Feb-20 17:51N 34°12' E 134°41'513.2
2018-Feb-20 17:30N 34°16' E 134°37'611.9
2018-Feb-20 17:00N 34°18' E 134°31'611.9
2018-Feb-20 16:30N 34°20' E 134°24'84 9.5
2018-Feb-20 07:42N 34°01' E 132°46'2 9.9
2018-Feb-20 07:30N 33°59' E 132°44'510.2
2018-Feb-20 06:59N 33°55' E 132°40'510.8
2018-Feb-20 06:29N 33°53' E 132°34'2711.4
2018-Feb-20 04:07N 33°45' E 132°03'512.4
2018-Feb-20 03:42N 33°46' E 131°57'212.0
2018-Feb-20 03:30N 33°46' E 131°54'612.2
2018-Feb-20 03:00N 33°47' E 131°47'612.0
2018-Feb-20 02:30N 33°48' E 131°40'611.7
2018-Feb-20 02:00N 33°49' E 131°32'611.5
2018-Feb-20 01:30N 33°50' E 131°26'611.2
2018-Feb-20 01:00N 33°51' E 131°19'510.9
2018-Feb-20 00:30N 33°53' E 131°13'611.0
2018-Feb-20 00:00N 33°56' E 131°07'611.2
2018-Feb-19 23:30N 33°58' E 131°01'510.6
2018-Feb-19 23:00N 33°55' E 130°56'3 6.1
2018-Feb-19 22:30N 33°54' E 130°53'0 0.0
2018-Feb-19 22:00N 33°54' E 130°53'0 0.0
2018-Feb-19 21:24N 33°54' E 130°53'0 0.0
2018-Feb-19 21:00N 33°54' E 130°53'0 0.0
2018-Feb-19 20:30N 33°54' E 130°53'0 0.0
2018-Feb-19 20:00N 33°54' E 130°53'0 0.0
2018-Feb-19 19:30N 33°54' E 130°53'0 0.0
2018-Feb-19 19:00N 33°54' E 130°53'0 0.0
2018-Feb-19 18:30N 33°54' E 130°53'0 0.0
2018-Feb-19 18:00N 33°54' E 130°53'0 0.0
2018-Feb-19 17:30N 33°54' E 130°53'0 0.0
2018-Feb-19 17:00N 33°54' E 130°53'0 0.0
2018-Feb-19 16:30N 33°54' E 130°53'0 0.0
2018-Feb-19 16:00N 33°54' E 130°53'0 0.0
2018-Feb-19 15:30N 33°54' E 130°53'0 0.0
2018-Feb-19 15:00N 33°54' E 130°53'0 0.0
2018-Feb-19 14:30N 33°54' E 130°53'0 0.0
2018-Feb-19 14:00N 33°54' E 130°53'0 0.0
2018-Feb-19 13:30N 33°54' E 130°53'0 0.0
2018-Feb-19 13:00N 33°54' E 130°53'0 0.0
2018-Feb-19 12:30N 33°54' E 130°53'0 0.0
2018-Feb-19 12:00N 33°54' E 130°53'0 0.0
2018-Feb-19 11:30N 33°54' E 130°53'0 0.0
2018-Feb-19 11:00N 33°54' E 130°53'0 0.0
2018-Feb-19 10:30N 33°54' E 130°53'0 0.0
2018-Feb-19 10:00N 33°54' E 130°53'0 0.0
2018-Feb-19 09:30N 33°54' E 130°53'0 0.0
2018-Feb-19 09:00N 33°54' E 130°53'0 0.0
2018-Feb-19 08:24N 33°54' E 130°53'0 0.0
2018-Feb-19 08:00N 33°54' E 130°53'0 0.0
2018-Feb-19 07:30N 33°54' E 130°53'0 0.0
2018-Feb-19 07:00N 33°54' E 130°53'0 0.0
2018-Feb-19 06:30N 33°54' E 130°53'0 0.0
2018-Feb-19 06:00N 33°54' E 130°53'0 0.0
2018-Feb-19 05:30N 33°54' E 130°53'0 0.0
2018-Feb-19 05:00N 33°54' E 130°53'0 0.0
2018-Feb-19 04:30N 33°54' E 130°53'0 0.0
2018-Feb-19 03:57N 33°54' E 130°53'0 0.0
2018-Feb-19 03:30N 33°54' E 130°53'0 0.0
2018-Feb-19 03:00N 33°54' E 130°53'0 0.0
2018-Feb-19 02:30N 33°54' E 130°53'0 0.0
2018-Feb-19 02:00N 33°54' E 130°53'0 0.0
2018-Feb-19 01:30N 33°54' E 130°53'0 0.0
2018-Feb-19 01:00N 33°54' E 130°53'0 0.0
2018-Feb-19 00:30N 33°54' E 130°53'0 0.0
2018-Feb-19 00:00N 33°54' E 130°53'0 0.0
2018-Feb-18 23:30N 33°54' E 130°53'0 0.0
2018-Feb-18 23:00N 33°54' E 130°53'0 0.0
2018-Feb-18 22:30N 33°54' E 130°53'0 0.0
2018-Feb-18 22:00N 33°54' E 130°53'0 0.0
2018-Feb-18 21:30N 33°54' E 130°53'0 0.0
2018-Feb-18 21:00N 33°54' E 130°53'0 0.0
2018-Feb-18 20:30N 33°54' E 130°53'0 0.0
2018-Feb-18 20:00N 33°54' E 130°53'0 0.0
2018-Feb-18 19:30N 33°54' E 130°53'0 0.0
2018-Feb-18 19:00N 33°54' E 130°53'0 0.0
2018-Feb-18 18:30N 33°54' E 130°53'0 0.0
2018-Feb-18 18:00N 33°54' E 130°53'0 0.0
2018-Feb-18 17:30N 33°54' E 130°53'0 0.0
2018-Feb-18 17:00N 33°54' E 130°53'0 0.0
2018-Feb-18 16:30N 33°54' E 130°53'0 0.0
2018-Feb-18 16:00N 33°54' E 130°53'0 0.0
2018-Feb-18 15:30N 33°54' E 130°53'0 0.0
2018-Feb-18 15:00N 33°54' E 130°53'0 0.0
2018-Feb-18 14:30N 33°54' E 130°53'0 0.0
2018-Feb-18 14:00N 33°54' E 130°53'0 0.0
2018-Feb-18 13:30N 33°54' E 130°53'0 0.0
2018-Feb-18 13:00N 33°54' E 130°53'0 0.0
2018-Feb-18 12:30N 33°54' E 130°53'0 0.0
2018-Feb-18 12:00N 33°54' E 130°53'0 0.0
2018-Feb-18 11:30N 33°54' E 130°53'0 0.0
2018-Feb-18 11:00N 33°54' E 130°53'0 0.0
2018-Feb-18 10:30N 33°54' E 130°53'0 0.0
2018-Feb-18 10:00N 33°54' E 130°53'0 0.0
2018-Feb-18 09:30N 33°54' E 130°53'0 0.0
2018-Feb-18 09:00N 33°54' E 130°53'0 0.0
2018-Feb-18 08:30N 33°54' E 130°53'0 0.0
2018-Feb-18 08:00N 33°54' E 130°53'0 0.0
2018-Feb-18 07:30N 33°54' E 130°53'0 0.0
2018-Feb-18 07:00N 33°54' E 130°53'0 0.0
2018-Feb-18 06:30N 33°54' E 130°53'0 0.0
2018-Feb-18 06:00N 33°54' E 130°53'0 0.0
2018-Feb-18 05:30N 33°54' E 130°53'0 0.0
2018-Feb-18 05:00N 33°54' E 130°53'0 0.0
2018-Feb-18 04:30N 33°54' E 130°53'0 0.0
2018-Feb-18 04:00N 33°54' E 130°53'0 0.0
2018-Feb-18 03:30N 33°54' E 130°53'0 0.0
2018-Feb-18 03:00N 33°54' E 130°53'0 0.0
2018-Feb-18 02:30N 33°54' E 130°53'0 0.0
2018-Feb-18 02:00N 33°54' E 130°53'0 0.0
2018-Feb-18 01:30N 33°54' E 130°53'0 0.0
2018-Feb-18 01:00N 33°54' E 130°53'0 0.0
2018-Feb-18 00:30N 33°54' E 130°53'0 0.0
2018-Feb-18 00:00N 33°54' E 130°53'0 0.0
2018-Feb-17 23:30N 33°54' E 130°53'0 0.0
2018-Feb-17 23:00N 33°54' E 130°53'2 4.0
2018-Feb-17 22:31N 33°54' E 130°55'5 9.6
2018-Feb-17 22:00N 33°58' E 130°59'4 8.5
2018-Feb-17 21:31N 33°57' E 131°04'713.2
2018-Feb-17 21:01N 33°54' E 131°10'713.4
2018-Feb-17 20:30N 33°51' E 131°18'713.2
2018-Feb-17 20:00N 33°50' E 131°25'613.0
2018-Feb-17 19:31N 33°48' E 131°33'612.8
2018-Feb-17 19:00N 33°47' E 131°41'612.7
2018-Feb-17 18:30N 33°46' E 131°48'712.8
2018-Feb-17 17:58N 33°45' E 131°56'613.1
2018-Feb-17 17:30N 33°46' E 132°04'913.7
2018-Feb-17 16:51N 33°50' E 132°13'513.6
2018-Feb-17 16:30N 33°50' E 132°19'713.3
2018-Feb-17 15:57N 33°53' E 132°27'613.8
2018-Feb-17 15:30N 33°57' E 132°33'613.0
2018-Feb-17 15:01N 34°02' E 132°38'10011.5
2018-Feb-17 06:20N 34°42' E 134°29'310.1
2018-Feb-17 06:00N 34°44' E 134°33'5 9.4
2018-Feb-17 05:28N 34°47' E 134°38'0 0.0
2018-Feb-16 17:57N 34°47' E 134°38'2 4.4
2018-Feb-16 17:30N 34°45' E 134°37'0 0.1
2018-Feb-16 16:59N 34°45' E 134°37'0 0.0
2018-Feb-16 15:59N 34°45' E 134°37'0 0.0
2018-Feb-16 15:11N 34°45' E 134°37'0 0.2
2018-Feb-16 14:59N 34°45' E 134°37'0 0.0
2018-Feb-16 14:29N 34°45' E 134°37'0 0.2
2018-Feb-16 13:58N 34°45' E 134°37'611.1
2018-Feb-16 13:28N 34°43' E 134°31'2411.2
2018-Feb-16 11:21N 34°32' E 134°05'72 9.5
2018-Feb-16 03:46N 34°01' E 132°46'311.3
2018-Feb-16 03:28N 33°58' E 132°44'611.8
2018-Feb-16 02:59N 33°55' E 132°38'611.7
2018-Feb-16 02:30N 33°51' E 132°34'611.6
2018-Feb-16 01:59N 33°47' E 132°28'712.0
2018-Feb-16 01:27N 33°43' E 132°22'612.0
2018-Feb-16 00:56N 33°39' E 132°16'1712.0
2018-Feb-15 23:33N 33°29' E 131°60'212.7
2018-Feb-15 23:22N 33°28' E 131°58'512.5
2018-Feb-15 23:00N 33°25' E 131°53'812.0
2018-Feb-15 22:21N 33°21' E 131°46'411.9
2018-Feb-15 22:00N 33°18' E 131°42'3 0.3
2018-Feb-15 12:51N 33°16' E 131°40'4 9.9
2018-Feb-15 12:29N 33°19' E 131°42'612.9
2018-Feb-15 12:00N 33°25' E 131°45'612.0
2018-Feb-15 11:30N 33°31' E 131°47'611.6
2018-Feb-15 11:00N 33°36' E 131°45'612.3
2018-Feb-15 10:30N 33°41' E 131°40'611.6
2018-Feb-15 10:00N 33°43' E 131°34'612.1
2018-Feb-15 09:30N 33°46' E 131°27'612.4
2018-Feb-15 09:00N 33°48' E 131°20'612.3
2018-Feb-15 08:30N 33°50' E 131°14'612.1
2018-Feb-15 08:00N 33°54' E 131°07'611.3
2018-Feb-15 07:30N 33°57' E 131°02'5 9.9
2018-Feb-15 07:01N 33°56' E 130°56'4 8.0
2018-Feb-15 06:30N 33°56' E 130°52'5 9.1
2018-Feb-15 06:00N 33°53' E 130°47'0 0.2
2018-Feb-15 05:29N 33°53' E 130°47'0 0.0
2018-Feb-15 04:59N 33°53' E 130°47'0 0.0
2018-Feb-15 04:29N 33°53' E 130°47'0 0.0
2018-Feb-15 03:59N 33°53' E 130°47'0 0.0
2018-Feb-15 03:29N 33°53' E 130°47'0 0.0
2018-Feb-15 02:59N 33°53' E 130°47'0 0.0
2018-Feb-15 02:29N 33°53' E 130°47'0 0.0
2018-Feb-15 01:59N 33°53' E 130°47'0 0.0
2018-Feb-15 01:29N 33°53' E 130°47'0 0.0
2018-Feb-15 00:59N 33°53' E 130°47'0 0.0
2018-Feb-15 00:29N 33°53' E 130°47'0 0.0
2018-Feb-14 23:59N 33°53' E 130°47'0 0.0
2018-Feb-14 23:29N 33°53' E 130°47'0 0.0
2018-Feb-14 22:59N 33°53' E 130°47'0 0.0
2018-Feb-14 22:29N 33°53' E 130°47'0 0.0
2018-Feb-14 21:59N 33°53' E 130°47'0 0.0
2018-Feb-14 21:29N 33°53' E 130°47'0 0.0
2018-Feb-14 20:59N 33°53' E 130°47'0 0.0
2018-Feb-14 20:29N 33°53' E 130°47'0 0.0
2018-Feb-14 19:59N 33°53' E 130°47'0 0.0
2018-Feb-14 19:23N 33°53' E 130°47'0 0.0
2018-Feb-14 18:59N 33°53' E 130°47'0 0.0
2018-Feb-14 18:29N 33°53' E 130°47'0 0.0
2018-Feb-14 17:59N 33°53' E 130°47'0 0.0
2018-Feb-14 17:29N 33°53' E 130°47'0 0.0
2018-Feb-14 16:59N 33°53' E 130°47'0 0.0
2018-Feb-14 16:29N 33°53' E 130°47'0 0.0
2018-Feb-14 15:59N 33°53' E 130°47'0 0.0
2018-Feb-14 15:29N 33°53' E 130°47'0 0.0
2018-Feb-14 14:59N 33°53' E 130°47'0 0.0
2018-Feb-14 14:29N 33°53' E 130°47'0 0.0
2018-Feb-14 13:59N 33°53' E 130°47'0 0.0
2018-Feb-14 13:29N 33°53' E 130°47'0 0.0
2018-Feb-14 12:59N 33°53' E 130°47'0 0.0
2018-Feb-14 12:29N 33°53' E 130°47'0 0.1
2018-Feb-14 12:00N 33°53' E 130°47'0 0.0
2018-Feb-14 11:30N 33°53' E 130°47'0 0.0
2018-Feb-14 11:00N 33°53' E 130°47'0 0.0
2018-Feb-14 10:30N 33°53' E 130°47'0 0.0
2018-Feb-14 09:57N 33°53' E 130°47'0 0.0
2018-Feb-14 09:30N 33°53' E 130°47'0 0.0
2018-Feb-14 09:00N 33°53' E 130°47'0 0.0
2018-Feb-14 08:30N 33°53' E 130°47'0 0.0
2018-Feb-14 08:00N 33°53' E 130°47'0 0.0
2018-Feb-14 07:30N 33°53' E 130°47'0 0.0
2018-Feb-14 07:00N 33°53' E 130°47'0 0.0
2018-Feb-14 06:27N 33°53' E 130°47'0 0.0
2018-Feb-14 06:00N 33°53' E 130°47'0 0.0
2018-Feb-14 05:30N 33°53' E 130°47'0 0.0
2018-Feb-14 05:00N 33°53' E 130°47'0 0.0
2018-Feb-14 04:30N 33°53' E 130°47'0 0.0
2018-Feb-14 03:57N 33°53' E 130°47'0 0.0
2018-Feb-14 03:30N 33°53' E 130°47'0 0.0
2018-Feb-14 03:00N 33°53' E 130°47'0 0.0
2018-Feb-14 02:31N 33°53' E 130°47'2 3.8
2018-Feb-14 02:00N 33°53' E 130°45'2 3.3
2018-Feb-14 01:30N 33°53' E 130°47'5 9.1
2018-Feb-14 01:01N 33°56' E 130°51'5 9.9
2018-Feb-14 00:30N 33°57' E 130°57'611.7
2018-Feb-14 00:00N 33°58' E 131°04'0 0.2
2018-Feb-13 23:30N 33°58' E 131°04'0 0.0
2018-Feb-13 23:00N 33°58' E 131°04'0 0.0
2018-Feb-13 22:30N 33°58' E 131°04'0 0.0
2018-Feb-13 22:00N 33°58' E 131°04'4 8.0
2018-Feb-13 21:30N 33°55' E 131°08'612.3
2018-Feb-13 21:00N 33°52' E 131°14'612.5
2018-Feb-13 20:30N 33°50' E 131°21'612.3
2018-Feb-13 20:00N 33°46' E 131°27'612.4
2018-Feb-13 19:30N 33°44' E 131°34'713.1
2018-Feb-13 19:00N 33°41' E 131°41'612.5
2018-Feb-13 18:30N 33°36' E 131°45'612.1
2018-Feb-13 18:00N 33°30' E 131°47'611.1
2018-Feb-13 17:30N 33°24' E 131°45'611.7
2018-Feb-13 17:00N 33°19' E 131°42'4 0.3
2018-Feb-13 03:08N 33°16' E 131°40'0 2.5
2018-Feb-13 03:00N 33°16' E 131°40'4 8.4
2018-Feb-13 02:30N 33°20' E 131°41'1 2.0
2018-Feb-13 01:56N 33°21' E 131°42'0 0.0
2018-Feb-13 01:20N 33°21' E 131°42'0 0.0
2018-Feb-13 00:50N 33°21' E 131°42'0 0.0
2018-Feb-13 00:26N 33°21' E 131°42'  

Dump ship's entire track history